sensor_id;sensor_type;location;lat;lon;timestamp;P1;durP1;ratioP1;P2;durP2;ratioP2
13250;SDS011;6692;50.710;7.180;2024-02-14T00:00:36;11.07;;;3.90;;
13250;SDS011;6692;50.710;7.180;2024-02-14T00:02:37;3.97;;;3.40;;
13250;SDS011;6692;50.710;7.180;2024-02-14T00:04:38;4.07;;;3.53;;
13250;SDS011;6692;50.710;7.180;2024-02-14T00:06:38;6.37;;;3.90;;
13250;SDS011;6692;50.710;7.180;2024-02-14T00:08:39;5.07;;;4.40;;
13250;SDS011;6692;50.710;7.180;2024-02-14T00:10:40;4.00;;;3.60;;
13250;SDS011;6692;50.710;7.180;2024-02-14T00:12:41;3.93;;;3.53;;
13250;SDS011;6692;50.710;7.180;2024-02-14T00:14:43;4.90;;;3.63;;
13250;SDS011;6692;50.710;7.180;2024-02-14T00:16:43;4.00;;;3.40;;
13250;SDS011;6692;50.710;7.180;2024-02-14T00:18:44;3.23;;;2.80;;
13250;SDS011;6692;50.710;7.180;2024-02-14T00:20:46;3.10;;;2.80;;
13250;SDS011;6692;50.710;7.180;2024-02-14T00:22:46;3.67;;;2.80;;
13250;SDS011;6692;50.710;7.180;2024-02-14T00:24:47;2.97;;;2.63;;
13250;SDS011;6692;50.710;7.180;2024-02-14T00:26:48;4.33;;;2.70;;
13250;SDS011;6692;50.710;7.180;2024-02-14T00:28:48;3.33;;;2.50;;
13250;SDS011;6692;50.710;7.180;2024-02-14T00:30:49;3.23;;;2.63;;
13250;SDS011;6692;50.710;7.180;2024-02-14T00:32:50;3.20;;;2.33;;
13250;SDS011;6692;50.710;7.180;2024-02-14T00:34:51;5.23;;;2.50;;
13250;SDS011;6692;50.710;7.180;2024-02-14T00:36:53;2.47;;;2.10;;
13250;SDS011;6692;50.710;7.180;2024-02-14T00:38:54;3.17;;;2.50;;
13250;SDS011;6692;50.710;7.180;2024-02-14T00:40:55;2.70;;;2.50;;
13250;SDS011;6692;50.710;7.180;2024-02-14T00:42:56;3.60;;;2.47;;
13250;SDS011;6692;50.710;7.180;2024-02-14T00:44:57;3.37;;;2.30;;
13250;SDS011;6692;50.710;7.180;2024-02-14T00:46:58;3.13;;;2.40;;
13250;SDS011;6692;50.710;7.180;2024-02-14T00:48:59;2.80;;;2.30;;
13250;SDS011;6692;50.710;7.180;2024-02-14T00:50:59;2.60;;;2.40;;
13250;SDS011;6692;50.710;7.180;2024-02-14T00:53:00;4.17;;;2.30;;
13250;SDS011;6692;50.710;7.180;2024-02-14T00:55:01;2.50;;;2.30;;
13250;SDS011;6692;50.710;7.180;2024-02-14T00:57:04;4.17;;;2.30;;
13250;SDS011;6692;50.710;7.180;2024-02-14T00:59:06;3.03;;;2.40;;
13250;SDS011;6692;50.710;7.180;2024-02-14T01:01:07;3.13;;;2.57;;
13250;SDS011;6692;50.710;7.180;2024-02-14T01:03:08;3.43;;;2.27;;
13250;SDS011;6692;50.710;7.180;2024-02-14T01:05:09;3.00;;;2.00;;
13250;SDS011;6692;50.710;7.180;2024-02-14T01:07:10;2.30;;;2.10;;
13250;SDS011;6692;50.710;7.180;2024-02-14T01:09:10;2.77;;;2.10;;
13250;SDS011;6692;50.710;7.180;2024-02-14T01:11:11;2.47;;;2.10;;
13250;SDS011;6692;50.710;7.180;2024-02-14T01:13:13;2.70;;;2.10;;
13250;SDS011;6692;50.710;7.180;2024-02-14T01:15:13;2.60;;;2.40;;
13250;SDS011;6692;50.710;7.180;2024-02-14T01:17:15;1.93;;;1.83;;
13250;SDS011;6692;50.710;7.180;2024-02-14T01:19:16;2.37;;;2.13;;
13250;SDS011;6692;50.710;7.180;2024-02-14T01:21:16;3.10;;;2.10;;
13250;SDS011;6692;50.710;7.180;2024-02-14T01:23:18;3.60;;;2.63;;
13250;SDS011;6692;50.710;7.180;2024-02-14T01:25:19;2.97;;;2.00;;
13250;SDS011;6692;50.710;7.180;2024-02-14T01:27:21;2.30;;;2.10;;
13250;SDS011;6692;50.710;7.180;2024-02-14T01:29:21;2.23;;;2.13;;
13250;SDS011;6692;50.710;7.180;2024-02-14T01:31:22;2.30;;;2.10;;
13250;SDS011;6692;50.710;7.180;2024-02-14T01:33:23;3.47;;;2.23;;
13250;SDS011;6692;50.710;7.180;2024-02-14T01:35:24;4.20;;;2.30;;
13250;SDS011;6692;50.710;7.180;2024-02-14T01:37:25;2.80;;;2.40;;
13250;SDS011;6692;50.710;7.180;2024-02-14T01:39:26;2.63;;;2.10;;
13250;SDS011;6692;50.710;7.180;2024-02-14T01:41:27;3.37;;;2.10;;
13250;SDS011;6692;50.710;7.180;2024-02-14T01:43:28;2.10;;;1.90;;
13250;SDS011;6692;50.710;7.180;2024-02-14T01:45:28;2.63;;;2.43;;
13250;SDS011;6692;50.710;7.180;2024-02-14T01:47:29;2.20;;;2.00;;
13250;SDS011;6692;50.710;7.180;2024-02-14T01:49:31;2.33;;;2.00;;
13250;SDS011;6692;50.710;7.180;2024-02-14T01:51:31;5.10;;;2.20;;
13250;SDS011;6692;50.710;7.180;2024-02-14T01:53:32;2.77;;;2.03;;
13250;SDS011;6692;50.710;7.180;2024-02-14T01:55:33;2.67;;;1.93;;
13250;SDS011;6692;50.710;7.180;2024-02-14T01:57:34;2.67;;;2.30;;
13250;SDS011;6692;50.710;7.180;2024-02-14T01:59:36;2.53;;;2.13;;
13250;SDS011;6692;50.710;7.180;2024-02-14T02:01:36;1.87;;;1.77;;
13250;SDS011;6692;50.710;7.180;2024-02-14T02:03:37;2.80;;;2.03;;
13250;SDS011;6692;50.710;7.180;2024-02-14T02:05:39;2.13;;;1.90;;
13250;SDS011;6692;50.710;7.180;2024-02-14T02:07:39;2.13;;;1.80;;
13250;SDS011;6692;50.710;7.180;2024-02-14T02:09:40;2.67;;;2.00;;
13250;SDS011;6692;50.710;7.180;2024-02-14T02:11:45;1.80;;;1.70;;
13250;SDS011;6692;50.710;7.180;2024-02-14T02:13:45;2.33;;;2.07;;
13250;SDS011;6692;50.710;7.180;2024-02-14T02:15:46;2.17;;;1.97;;
13250;SDS011;6692;50.710;7.180;2024-02-14T02:17:47;2.30;;;2.10;;
13250;SDS011;6692;50.710;7.180;2024-02-14T02:19:48;2.10;;;1.90;;
13250;SDS011;6692;50.710;7.180;2024-02-14T02:21:50;1.97;;;1.80;;
13250;SDS011;6692;50.710;7.180;2024-02-14T02:23:50;2.40;;;2.20;;
13250;SDS011;6692;50.710;7.180;2024-02-14T02:25:51;2.30;;;1.90;;
13250;SDS011;6692;50.710;7.180;2024-02-14T02:27:52;2.60;;;1.90;;
13250;SDS011;6692;50.710;7.180;2024-02-14T02:29:52;2.20;;;2.00;;
13250;SDS011;6692;50.710;7.180;2024-02-14T02:31:53;2.40;;;2.07;;
13250;SDS011;6692;50.710;7.180;2024-02-14T02:33:54;2.33;;;1.90;;
13250;SDS011;6692;50.710;7.180;2024-02-14T02:35:56;2.07;;;1.90;;
13250;SDS011;6692;50.710;7.180;2024-02-14T02:37:56;2.40;;;2.00;;
13250;SDS011;6692;50.710;7.180;2024-02-14T02:39:58;2.70;;;2.23;;
13250;SDS011;6692;50.710;7.180;2024-02-14T02:41:59;2.00;;;1.90;;
13250;SDS011;6692;50.710;7.180;2024-02-14T02:43:59;2.43;;;2.07;;
13250;SDS011;6692;50.710;7.180;2024-02-14T02:46:00;3.23;;;2.20;;
13250;SDS011;6692;50.710;7.180;2024-02-14T02:48:01;2.10;;;1.90;;
13250;SDS011;6692;50.710;7.180;2024-02-14T02:50:02;2.30;;;1.90;;
13250;SDS011;6692;50.710;7.180;2024-02-14T02:52:03;2.10;;;1.90;;
13250;SDS011;6692;50.710;7.180;2024-02-14T02:54:04;1.90;;;1.80;;
13250;SDS011;6692;50.710;7.180;2024-02-14T02:56:06;2.43;;;1.83;;
13250;SDS011;6692;50.710;7.180;2024-02-14T02:58:07;2.10;;;2.00;;
13250;SDS011;6692;50.710;7.180;2024-02-14T03:00:08;2.20;;;2.00;;
13250;SDS011;6692;50.710;7.180;2024-02-14T03:02:10;2.40;;;1.80;;
13250;SDS011;6692;50.710;7.180;2024-02-14T03:04:10;2.30;;;2.00;;
13250;SDS011;6692;50.710;7.180;2024-02-14T03:06:12;2.70;;;2.10;;
13250;SDS011;6692;50.710;7.180;2024-02-14T03:08:12;2.03;;;1.90;;
13250;SDS011;6692;50.710;7.180;2024-02-14T03:10:13;2.10;;;1.90;;
13250;SDS011;6692;50.710;7.180;2024-02-14T03:12:14;2.67;;;2.10;;
13250;SDS011;6692;50.710;7.180;2024-02-14T03:14:15;2.00;;;1.90;;
13250;SDS011;6692;50.710;7.180;2024-02-14T03:16:16;3.80;;;1.97;;
13250;SDS011;6692;50.710;7.180;2024-02-14T03:18:17;2.10;;;1.90;;
13250;SDS011;6692;50.710;7.180;2024-02-14T03:20:18;2.80;;;2.00;;
13250;SDS011;6692;50.710;7.180;2024-02-14T03:22:19;2.20;;;2.00;;
13250;SDS011;6692;50.710;7.180;2024-02-14T03:24:20;2.70;;;1.90;;
13250;SDS011;6692;50.710;7.180;2024-02-14T03:26:21;2.20;;;2.00;;
13250;SDS011;6692;50.710;7.180;2024-02-14T03:28:21;3.03;;;1.80;;
13250;SDS011;6692;50.710;7.180;2024-02-14T03:30:26;2.40;;;1.97;;
13250;SDS011;6692;50.710;7.180;2024-02-14T03:32:28;2.07;;;1.83;;
13250;SDS011;6692;50.710;7.180;2024-02-14T03:34:30;2.13;;;1.87;;
13250;SDS011;6692;50.710;7.180;2024-02-14T03:36:31;1.80;;;1.70;;
13250;SDS011;6692;50.710;7.180;2024-02-14T03:38:31;1.90;;;1.80;;
13250;SDS011;6692;50.710;7.180;2024-02-14T03:40:33;1.87;;;1.77;;
13250;SDS011;6692;50.710;7.180;2024-02-14T03:42:34;2.13;;;1.93;;
13250;SDS011;6692;50.710;7.180;2024-02-14T03:44:34;1.77;;;1.67;;
13250;SDS011;6692;50.710;7.180;2024-02-14T03:46:35;2.43;;;1.93;;
13250;SDS011;6692;50.710;7.180;2024-02-14T03:48:36;1.80;;;1.70;;
13250;SDS011;6692;50.710;7.180;2024-02-14T03:50:38;3.00;;;1.90;;
13250;SDS011;6692;50.710;7.180;2024-02-14T03:52:38;2.07;;;1.80;;
13250;SDS011;6692;50.710;7.180;2024-02-14T03:54:39;2.07;;;1.87;;
13250;SDS011;6692;50.710;7.180;2024-02-14T03:56:40;2.03;;;1.93;;
13250;SDS011;6692;50.710;7.180;2024-02-14T03:58:41;4.50;;;2.10;;
13250;SDS011;6692;50.710;7.180;2024-02-14T04:00:42;3.03;;;2.10;;
13250;SDS011;6692;50.710;7.180;2024-02-14T04:02:43;1.93;;;1.80;;
13250;SDS011;6692;50.710;7.180;2024-02-14T04:04:43;2.20;;;2.00;;
13250;SDS011;6692;50.710;7.180;2024-02-14T04:06:44;1.93;;;1.83;;
13250;SDS011;6692;50.710;7.180;2024-02-14T04:08:45;2.90;;;1.80;;
13250;SDS011;6692;50.710;7.180;2024-02-14T04:10:46;1.90;;;1.80;;
13250;SDS011;6692;50.710;7.180;2024-02-14T04:12:46;1.83;;;1.73;;
13250;SDS011;6692;50.710;7.180;2024-02-14T04:14:47;2.30;;;2.10;;
13250;SDS011;6692;50.710;7.180;2024-02-14T04:16:48;2.87;;;1.87;;
13250;SDS011;6692;50.710;7.180;2024-02-14T04:18:48;3.63;;;2.30;;
13250;SDS011;6692;50.710;7.180;2024-02-14T04:20:49;2.27;;;2.07;;
13250;SDS011;6692;50.710;7.180;2024-02-14T04:22:51;3.57;;;2.20;;
13250;SDS011;6692;50.710;7.180;2024-02-14T04:24:51;2.10;;;1.90;;
13250;SDS011;6692;50.710;7.180;2024-02-14T04:26:53;3.07;;;1.80;;
13250;SDS011;6692;50.710;7.180;2024-02-14T04:28:53;2.40;;;2.10;;
13250;SDS011;6692;50.710;7.180;2024-02-14T04:30:54;2.20;;;2.00;;
13250;SDS011;6692;50.710;7.180;2024-02-14T04:32:54;1.93;;;1.80;;
13250;SDS011;6692;50.710;7.180;2024-02-14T04:34:55;2.20;;;2.00;;
13250;SDS011;6692;50.710;7.180;2024-02-14T04:36:56;2.03;;;1.90;;
13250;SDS011;6692;50.710;7.180;2024-02-14T04:38:57;2.87;;;1.97;;
13250;SDS011;6692;50.710;7.180;2024-02-14T04:40:57;2.80;;;1.80;;
13250;SDS011;6692;50.710;7.180;2024-02-14T04:42:58;2.30;;;2.10;;
13250;SDS011;6692;50.710;7.180;2024-02-14T04:44:59;2.30;;;2.00;;
13250;SDS011;6692;50.710;7.180;2024-02-14T04:47:00;2.13;;;2.00;;
13250;SDS011;6692;50.710;7.180;2024-02-14T04:49:01;2.13;;;1.93;;
13250;SDS011;6692;50.710;7.180;2024-02-14T04:51:01;2.20;;;2.00;;
13250;SDS011;6692;50.710;7.180;2024-02-14T04:53:02;2.30;;;2.10;;
13250;SDS011;6692;50.710;7.180;2024-02-14T04:55:03;2.50;;;2.30;;
13250;SDS011;6692;50.710;7.180;2024-02-14T04:57:04;2.20;;;2.00;;
13250;SDS011;6692;50.710;7.180;2024-02-14T04:59:05;2.00;;;1.80;;
13250;SDS011;6692;50.710;7.180;2024-02-14T05:01:06;4.23;;;2.57;;
13250;SDS011;6692;50.710;7.180;2024-02-14T05:03:06;2.17;;;1.97;;
13250;SDS011;6692;50.710;7.180;2024-02-14T05:05:08;2.07;;;1.87;;
13250;SDS011;6692;50.710;7.180;2024-02-14T05:07:09;2.23;;;2.03;;
13250;SDS011;6692;50.710;7.180;2024-02-14T05:09:09;2.23;;;1.90;;
13250;SDS011;6692;50.710;7.180;2024-02-14T05:11:10;2.40;;;2.20;;
13250;SDS011;6692;50.710;7.180;2024-02-14T05:13:11;2.27;;;2.00;;
13250;SDS011;6692;50.710;7.180;2024-02-14T05:15:12;2.43;;;2.23;;
13250;SDS011;6692;50.710;7.180;2024-02-14T05:17:13;2.13;;;1.93;;
13250;SDS011;6692;50.710;7.180;2024-02-14T05:19:15;2.60;;;2.40;;
13250;SDS011;6692;50.710;7.180;2024-02-14T05:21:19;2.30;;;2.10;;
13250;SDS011;6692;50.710;7.180;2024-02-14T05:23:17;2.27;;;2.07;;
13250;SDS011;6692;50.710;7.180;2024-02-14T05:25:18;2.63;;;2.10;;
13250;SDS011;6692;50.710;7.180;2024-02-14T05:27:19;2.50;;;2.30;;
13250;SDS011;6692;50.710;7.180;2024-02-14T05:29:21;2.20;;;2.00;;
13250;SDS011;6692;50.710;7.180;2024-02-14T05:31:21;2.27;;;2.07;;
13250;SDS011;6692;50.710;7.180;2024-02-14T05:33:23;2.43;;;2.23;;
13250;SDS011;6692;50.710;7.180;2024-02-14T05:35:25;4.80;;;2.10;;
13250;SDS011;6692;50.710;7.180;2024-02-14T05:37:26;2.67;;;2.23;;
13250;SDS011;6692;50.710;7.180;2024-02-14T05:39:27;2.27;;;2.07;;
13250;SDS011;6692;50.710;7.180;2024-02-14T05:41:28;3.37;;;2.40;;
13250;SDS011;6692;50.710;7.180;2024-02-14T05:43:28;2.37;;;2.10;;
13250;SDS011;6692;50.710;7.180;2024-02-14T05:45:29;2.20;;;2.10;;
13250;SDS011;6692;50.710;7.180;2024-02-14T05:47:30;2.47;;;2.23;;
13250;SDS011;6692;50.710;7.180;2024-02-14T05:49:31;3.53;;;2.00;;
13250;SDS011;6692;50.710;7.180;2024-02-14T05:51:32;2.43;;;2.23;;
13250;SDS011;6692;50.710;7.180;2024-02-14T05:53:33;2.47;;;2.10;;
13250;SDS011;6692;50.710;7.180;2024-02-14T05:55:33;2.70;;;2.27;;
13250;SDS011;6692;50.710;7.180;2024-02-14T05:57:35;3.10;;;2.47;;
13250;SDS011;6692;50.710;7.180;2024-02-14T05:59:36;2.50;;;2.30;;
13250;SDS011;6692;50.710;7.180;2024-02-14T06:01:37;2.20;;;2.10;;
13250;SDS011;6692;50.710;7.180;2024-02-14T06:03:37;2.50;;;2.30;;
13250;SDS011;6692;50.710;7.180;2024-02-14T06:05:38;2.80;;;2.50;;
13250;SDS011;6692;50.710;7.180;2024-02-14T06:07:39;3.83;;;2.53;;
13250;SDS011;6692;50.710;7.180;2024-02-14T06:09:40;2.87;;;2.20;;
13250;SDS011;6692;50.710;7.180;2024-02-14T06:11:40;2.83;;;2.53;;
13250;SDS011;6692;50.710;7.180;2024-02-14T06:13:42;2.73;;;2.20;;
13250;SDS011;6692;50.710;7.180;2024-02-14T06:15:42;2.60;;;2.40;;
13250;SDS011;6692;50.710;7.180;2024-02-14T06:17:43;2.40;;;2.20;;
13250;SDS011;6692;50.710;7.180;2024-02-14T06:19:44;3.00;;;2.30;;
13250;SDS011;6692;50.710;7.180;2024-02-14T06:21:45;2.60;;;2.30;;
13250;SDS011;6692;50.710;7.180;2024-02-14T06:23:47;2.47;;;2.27;;
13250;SDS011;6692;50.710;7.180;2024-02-14T06:25:48;2.50;;;2.30;;
13250;SDS011;6692;50.710;7.180;2024-02-14T06:27:49;2.57;;;2.00;;
13250;SDS011;6692;50.710;7.180;2024-02-14T06:29:50;3.03;;;2.43;;
13250;SDS011;6692;50.710;7.180;2024-02-14T06:31:50;3.07;;;2.20;;
13250;SDS011;6692;50.710;7.180;2024-02-14T06:33:51;2.20;;;2.00;;
13250;SDS011;6692;50.710;7.180;2024-02-14T06:35:52;2.60;;;2.40;;
13250;SDS011;6692;50.710;7.180;2024-02-14T06:37:53;2.00;;;1.90;;
13250;SDS011;6692;50.710;7.180;2024-02-14T06:39:53;2.30;;;2.10;;
13250;SDS011;6692;50.710;7.180;2024-02-14T06:41:54;2.20;;;2.00;;
13250;SDS011;6692;50.710;7.180;2024-02-14T06:43:55;2.37;;;2.00;;
13250;SDS011;6692;50.710;7.180;2024-02-14T06:45:55;2.33;;;2.13;;
13250;SDS011;6692;50.710;7.180;2024-02-14T06:47:56;2.30;;;1.87;;
13250;SDS011;6692;50.710;7.180;2024-02-14T06:49:57;2.50;;;2.30;;
13250;SDS011;6692;50.710;7.180;2024-02-14T06:51:58;2.53;;;2.17;;
13250;SDS011;6692;50.710;7.180;2024-02-14T06:53:59;2.43;;;2.23;;
13250;SDS011;6692;50.710;7.180;2024-02-14T06:56:00;2.47;;;2.27;;
13250;SDS011;6692;50.710;7.180;2024-02-14T06:58:00;2.00;;;1.90;;
13250;SDS011;6692;50.710;7.180;2024-02-14T07:00:02;2.10;;;2.00;;
13250;SDS011;6692;50.710;7.180;2024-02-14T07:02:02;2.17;;;2.00;;
13250;SDS011;6692;50.710;7.180;2024-02-14T07:04:03;1.93;;;1.73;;
13250;SDS011;6692;50.710;7.180;2024-02-14T07:06:04;2.10;;;1.90;;
13250;SDS011;6692;50.710;7.180;2024-02-14T07:08:05;1.90;;;1.80;;
13250;SDS011;6692;50.710;7.180;2024-02-14T07:10:06;1.90;;;1.80;;
13250;SDS011;6692;50.710;7.180;2024-02-14T07:12:09;1.83;;;1.73;;
13250;SDS011;6692;50.710;7.180;2024-02-14T07:14:09;1.87;;;1.73;;
13250;SDS011;6692;50.710;7.180;2024-02-14T07:16:10;2.10;;;1.90;;
13250;SDS011;6692;50.710;7.180;2024-02-14T07:18:11;2.10;;;1.90;;
13250;SDS011;6692;50.710;7.180;2024-02-14T07:20:11;1.80;;;1.70;;
13250;SDS011;6692;50.710;7.180;2024-02-14T07:22:12;2.00;;;1.90;;
13250;SDS011;6692;50.710;7.180;2024-02-14T07:24:13;1.97;;;1.80;;
13250;SDS011;6692;50.710;7.180;2024-02-14T07:26:14;2.00;;;1.80;;
13250;SDS011;6692;50.710;7.180;2024-02-14T07:28:15;1.77;;;1.67;;
13250;SDS011;6692;50.710;7.180;2024-02-14T07:30:16;1.80;;;1.70;;
13250;SDS011;6692;50.710;7.180;2024-02-14T07:32:17;2.00;;;1.87;;
13250;SDS011;6692;50.710;7.180;2024-02-14T07:34:18;1.80;;;1.70;;
13250;SDS011;6692;50.710;7.180;2024-02-14T07:36:19;1.80;;;1.70;;
13250;SDS011;6692;50.710;7.180;2024-02-14T07:38:19;1.83;;;1.73;;
13250;SDS011;6692;50.710;7.180;2024-02-14T07:40:21;2.43;;;1.80;;
13250;SDS011;6692;50.710;7.180;2024-02-14T07:42:21;2.17;;;1.97;;
13250;SDS011;6692;50.710;7.180;2024-02-14T07:44:22;1.70;;;1.60;;
13250;SDS011;6692;50.710;7.180;2024-02-14T07:46:23;1.80;;;1.70;;
13250;SDS011;6692;50.710;7.180;2024-02-14T07:48:24;1.80;;;1.70;;
13250;SDS011;6692;50.710;7.180;2024-02-14T07:50:25;1.80;;;1.70;;
13250;SDS011;6692;50.710;7.180;2024-02-14T07:52:26;1.60;;;1.50;;
13250;SDS011;6692;50.710;7.180;2024-02-14T07:54:27;1.60;;;1.50;;
13250;SDS011;6692;50.710;7.180;2024-02-14T07:56:28;1.97;;;1.87;;
13250;SDS011;6692;50.710;7.180;2024-02-14T07:58:29;1.70;;;1.60;;
13250;SDS011;6692;50.710;7.180;2024-02-14T08:00:30;1.90;;;1.70;;
13250;SDS011;6692;50.710;7.180;2024-02-14T08:02:31;2.33;;;1.70;;
13250;SDS011;6692;50.710;7.180;2024-02-14T08:04:32;1.80;;;1.70;;
13250;SDS011;6692;50.710;7.180;2024-02-14T08:06:32;1.93;;;1.70;;
13250;SDS011;6692;50.710;7.180;2024-02-14T08:08:33;1.73;;;1.60;;
13250;SDS011;6692;50.710;7.180;2024-02-14T08:10:34;2.00;;;1.80;;
13250;SDS011;6692;50.710;7.180;2024-02-14T08:12:35;1.90;;;1.80;;
13250;SDS011;6692;50.710;7.180;2024-02-14T08:14:35;2.37;;;1.67;;
13250;SDS011;6692;50.710;7.180;2024-02-14T08:16:37;1.90;;;1.80;;
13250;SDS011;6692;50.710;7.180;2024-02-14T08:18:38;1.80;;;1.70;;
13250;SDS011;6692;50.710;7.180;2024-02-14T08:20:38;1.90;;;1.80;;
13250;SDS011;6692;50.710;7.180;2024-02-14T08:22:39;1.70;;;1.60;;
13250;SDS011;6692;50.710;7.180;2024-02-14T08:24:40;1.80;;;1.70;;
13250;SDS011;6692;50.710;7.180;2024-02-14T08:26:41;1.80;;;1.70;;
13250;SDS011;6692;50.710;7.180;2024-02-14T08:28:42;2.10;;;1.70;;
13250;SDS011;6692;50.710;7.180;2024-02-14T08:30:43;2.87;;;2.00;;
13250;SDS011;6692;50.710;7.180;2024-02-14T08:32:43;2.20;;;2.00;;
13250;SDS011;6692;50.710;7.180;2024-02-14T08:34:44;2.13;;;1.90;;
13250;SDS011;6692;50.710;7.180;2024-02-14T08:36:45;1.97;;;1.80;;
13250;SDS011;6692;50.710;7.180;2024-02-14T08:38:46;1.80;;;1.70;;
13250;SDS011;6692;50.710;7.180;2024-02-14T08:40:46;2.00;;;1.90;;
13250;SDS011;6692;50.710;7.180;2024-02-14T08:42:47;2.30;;;1.70;;
13250;SDS011;6692;50.710;7.180;2024-02-14T08:44:48;1.80;;;1.70;;
13250;SDS011;6692;50.710;7.180;2024-02-14T08:46:49;2.10;;;1.90;;
13250;SDS011;6692;50.710;7.180;2024-02-14T08:48:50;1.90;;;1.80;;
13250;SDS011;6692;50.710;7.180;2024-02-14T08:50:50;1.70;;;1.60;;
13250;SDS011;6692;50.710;7.180;2024-02-14T08:52:51;1.63;;;1.53;;
13250;SDS011;6692;50.710;7.180;2024-02-14T08:54:52;1.70;;;1.60;;
13250;SDS011;6692;50.710;7.180;2024-02-14T08:56:54;1.73;;;1.63;;
13250;SDS011;6692;50.710;7.180;2024-02-14T08:58:54;1.80;;;1.70;;
13250;SDS011;6692;50.710;7.180;2024-02-14T09:00:56;1.60;;;1.50;;
13250;SDS011;6692;50.710;7.180;2024-02-14T09:02:56;1.93;;;1.83;;
13250;SDS011;6692;50.710;7.180;2024-02-14T09:04:57;1.70;;;1.60;;
13250;SDS011;6692;50.710;7.180;2024-02-14T09:06:58;1.70;;;1.60;;
13250;SDS011;6692;50.710;7.180;2024-02-14T09:08:59;2.73;;;1.80;;
13250;SDS011;6692;50.710;7.180;2024-02-14T09:11:00;1.83;;;1.60;;
13250;SDS011;6692;50.710;7.180;2024-02-14T09:13:01;1.93;;;1.83;;
13250;SDS011;6692;50.710;7.180;2024-02-14T09:15:01;1.80;;;1.70;;
13250;SDS011;6692;50.710;7.180;2024-02-14T09:17:02;1.80;;;1.70;;
13250;SDS011;6692;50.710;7.180;2024-02-14T09:19:03;1.90;;;1.80;;
13250;SDS011;6692;50.710;7.180;2024-02-14T09:21:04;1.77;;;1.67;;
13250;SDS011;6692;50.710;7.180;2024-02-14T09:23:05;1.97;;;1.87;;
13250;SDS011;6692;50.710;7.180;2024-02-14T09:25:06;1.77;;;1.67;;
13250;SDS011;6692;50.710;7.180;2024-02-14T09:27:07;1.80;;;1.70;;
13250;SDS011;6692;50.710;7.180;2024-02-14T09:29:09;1.90;;;1.77;;
13250;SDS011;6692;50.710;7.180;2024-02-14T09:31:10;1.60;;;1.50;;
13250;SDS011;6692;50.710;7.180;2024-02-14T09:33:11;1.70;;;1.60;;
13250;SDS011;6692;50.710;7.180;2024-02-14T09:35:13;1.70;;;1.60;;
13250;SDS011;6692;50.710;7.180;2024-02-14T09:37:13;1.60;;;1.50;;
13250;SDS011;6692;50.710;7.180;2024-02-14T09:39:14;1.73;;;1.50;;
13250;SDS011;6692;50.710;7.180;2024-02-14T09:41:16;1.57;;;1.47;;
13250;SDS011;6692;50.710;7.180;2024-02-14T09:43:23;1.80;;;1.70;;
13250;SDS011;6692;50.710;7.180;2024-02-14T09:45:25;2.00;;;1.40;;
13250;SDS011;6692;50.710;7.180;2024-02-14T09:47:26;1.60;;;1.50;;
13250;SDS011;6692;50.710;7.180;2024-02-14T09:49:27;1.60;;;1.50;;
13250;SDS011;6692;50.710;7.180;2024-02-14T09:51:28;1.70;;;1.60;;
13250;SDS011;6692;50.710;7.180;2024-02-14T09:53:29;2.70;;;1.80;;
13250;SDS011;6692;50.710;7.180;2024-02-14T09:55:31;1.50;;;1.40;;
13250;SDS011;6692;50.710;7.180;2024-02-14T09:57:32;1.70;;;1.60;;
13250;SDS011;6692;50.710;7.180;2024-02-14T09:59:34;1.37;;;1.30;;
13250;SDS011;6692;50.710;7.180;2024-02-14T10:01:35;1.60;;;1.50;;
13250;SDS011;6692;50.710;7.180;2024-02-14T10:03:36;1.60;;;1.50;;
13250;SDS011;6692;50.710;7.180;2024-02-14T10:05:37;1.50;;;1.40;;
13250;SDS011;6692;50.710;7.180;2024-02-14T10:07:39;1.87;;;1.50;;
13250;SDS011;6692;50.710;7.180;2024-02-14T10:09:40;1.60;;;1.50;;
13250;SDS011;6692;50.710;7.180;2024-02-14T10:11:41;1.60;;;1.50;;
13250;SDS011;6692;50.710;7.180;2024-02-14T10:13:43;1.80;;;1.70;;
13250;SDS011;6692;50.710;7.180;2024-02-14T10:15:42;1.70;;;1.60;;
13250;SDS011;6692;50.710;7.180;2024-02-14T10:17:43;1.87;;;1.70;;
13250;SDS011;6692;50.710;7.180;2024-02-14T10:19:54;1.70;;;1.60;;
13250;SDS011;6692;50.710;7.180;2024-02-14T10:21:57;1.57;;;1.47;;
13250;SDS011;6692;50.710;7.180;2024-02-14T10:23:59;1.90;;;1.80;;
13250;SDS011;6692;50.710;7.180;2024-02-14T10:26:00;2.33;;;1.57;;
13250;SDS011;6692;50.710;7.180;2024-02-14T10:28:04;1.70;;;1.60;;
13250;SDS011;6692;50.710;7.180;2024-02-14T10:30:05;1.40;;;1.30;;
13250;SDS011;6692;50.710;7.180;2024-02-14T10:32:07;2.57;;;1.70;;
13250;SDS011;6692;50.710;7.180;2024-02-14T10:34:07;2.33;;;1.90;;
13250;SDS011;6692;50.710;7.180;2024-02-14T10:36:08;1.50;;;1.40;;
13250;SDS011;6692;50.710;7.180;2024-02-14T10:38:09;1.77;;;1.67;;
13250;SDS011;6692;50.710;7.180;2024-02-14T10:40:10;1.57;;;1.47;;
13250;SDS011;6692;50.710;7.180;2024-02-14T10:42:10;1.80;;;1.70;;
13250;SDS011;6692;50.710;7.180;2024-02-14T10:44:11;1.80;;;1.70;;
13250;SDS011;6692;50.710;7.180;2024-02-14T10:46:20;1.60;;;1.50;;
13250;SDS011;6692;50.710;7.180;2024-02-14T10:48:22;1.97;;;1.77;;
13250;SDS011;6692;50.710;7.180;2024-02-14T10:50:22;1.97;;;1.60;;
13250;SDS011;6692;50.710;7.180;2024-02-14T10:52:23;1.60;;;1.50;;
13250;SDS011;6692;50.710;7.180;2024-02-14T10:54:24;1.80;;;1.70;;
13250;SDS011;6692;50.710;7.180;2024-02-14T10:56:25;1.60;;;1.50;;
13250;SDS011;6692;50.710;7.180;2024-02-14T10:58:25;2.13;;;1.67;;
13250;SDS011;6692;50.710;7.180;2024-02-14T11:00:26;4.37;;;1.60;;
13250;SDS011;6692;50.710;7.180;2024-02-14T11:02:27;1.80;;;1.60;;
13250;SDS011;6692;50.710;7.180;2024-02-14T11:04:27;1.63;;;1.53;;
13250;SDS011;6692;50.710;7.180;2024-02-14T11:06:28;1.60;;;1.50;;
13250;SDS011;6692;50.710;7.180;2024-02-14T11:08:29;1.70;;;1.60;;
13250;SDS011;6692;50.710;7.180;2024-02-14T11:10:30;1.60;;;1.50;;
13250;SDS011;6692;50.710;7.180;2024-02-14T11:12:34;1.70;;;1.60;;
13250;SDS011;6692;50.710;7.180;2024-02-14T11:14:34;3.13;;;1.60;;
13250;SDS011;6692;50.710;7.180;2024-02-14T11:16:36;2.00;;;1.90;;
13250;SDS011;6692;50.710;7.180;2024-02-14T11:18:36;1.97;;;1.60;;
13250;SDS011;6692;50.710;7.180;2024-02-14T11:20:36;2.23;;;1.80;;
13250;SDS011;6692;50.710;7.180;2024-02-14T11:22:37;1.70;;;1.60;;
13250;SDS011;6692;50.710;7.180;2024-02-14T11:24:38;1.70;;;1.60;;
13250;SDS011;6692;50.710;7.180;2024-02-14T11:26:55;1.87;;;1.77;;
13250;SDS011;6692;50.710;7.180;2024-02-14T11:28:59;1.80;;;1.70;;
13250;SDS011;6692;50.710;7.180;2024-02-14T11:31:00;1.67;;;1.57;;
13250;SDS011;6692;50.710;7.180;2024-02-14T11:33:16;2.00;;;1.80;;
13250;SDS011;6692;50.710;7.180;2024-02-14T11:35:19;1.70;;;1.60;;
13250;SDS011;6692;50.710;7.180;2024-02-14T11:37:20;2.17;;;1.60;;
13250;SDS011;6692;50.710;7.180;2024-02-14T11:39:21;1.80;;;1.70;;
13250;SDS011;6692;50.710;7.180;2024-02-14T11:41:22;2.60;;;1.90;;
13250;SDS011;6692;50.710;7.180;2024-02-14T11:43:22;1.80;;;1.70;;
13250;SDS011;6692;50.710;7.180;2024-02-14T11:45:24;1.67;;;1.57;;
13250;SDS011;6692;50.710;7.180;2024-02-14T11:47:25;1.80;;;1.70;;
13250;SDS011;6692;50.710;7.180;2024-02-14T11:49:25;2.10;;;1.70;;
13250;SDS011;6692;50.710;7.180;2024-02-14T11:51:27;2.33;;;1.67;;
13250;SDS011;6692;50.710;7.180;2024-02-14T11:53:27;2.27;;;1.80;;
13250;SDS011;6692;50.710;7.180;2024-02-14T11:55:28;1.70;;;1.60;;
13250;SDS011;6692;50.710;7.180;2024-02-14T11:57:28;1.73;;;1.63;;
13250;SDS011;6692;50.710;7.180;2024-02-14T11:59:29;2.20;;;1.80;;
13250;SDS011;6692;50.710;7.180;2024-02-14T12:01:31;2.93;;;1.60;;
13250;SDS011;6692;50.710;7.180;2024-02-14T12:03:31;1.53;;;1.43;;
13250;SDS011;6692;50.710;7.180;2024-02-14T12:05:32;1.73;;;1.63;;
13250;SDS011;6692;50.710;7.180;2024-02-14T12:07:32;1.50;;;1.40;;
13250;SDS011;6692;50.710;7.180;2024-02-14T12:09:33;1.83;;;1.43;;
13250;SDS011;6692;50.710;7.180;2024-02-14T12:11:35;2.43;;;1.87;;
13250;SDS011;6692;50.710;7.180;2024-02-14T12:13:35;1.77;;;1.67;;
13250;SDS011;6692;50.710;7.180;2024-02-14T12:15:37;1.70;;;1.60;;
13250;SDS011;6692;50.710;7.180;2024-02-14T12:17:37;1.97;;;1.60;;
13250;SDS011;6692;50.710;7.180;2024-02-14T12:19:38;2.17;;;1.63;;